Terminal Aerodrome Forecast
Issued by NWS

Home | Current Version | Previous Version | Text Only | Print | Product List | Glossary On
Versions: 1 2 3 4 5 6 7 8 9 10 11 12 13
665
FTUS43 KEAX 191120
TAFSTJ
TAF
KSTJ 191120Z 1912/2012 16006KT P6SM -SHRA VCTS BKN080CB
      TEMPO 1912/1916 6SM -TSRA
     FM191600 18009KT P6SM BKN250=

USA.gov is the U.S. government's official web portal to all federal, state and local government web resources and services.